Time;durP1;ratioP1;P1;durP2;ratioP2;P2;SDS_P1;SDS_P2;PMS_P1;PMS_P2;Temp;Humidity;BMP_temperature;BMP_pressure;BME280_temperature;BME280_humidity;BME280_pressure;Samples;Min_cycle;Max_cycle;Signal;HPM_P1;HPM_P2
2023/06/19 00:00:51;;;;;;;;;6.33;5.33;;;;;;;;2011509;28;2740917;-78
2023/06/19 00:02:04;;;;;;;;;6.00;6.00;;;;;;;;2002618;28;2734661;-78
2023/06/19 00:03:14;;;;;;;;;7.00;6.00;;;;;;;;1952776;28;2738800;-78
2023/06/19 00:04:26;;;;;;;;;7.00;5.33;;;;;;;;2000572;28;2737789;-78
2023/06/19 00:05:36;;;;;;;;;7.33;7.00;;;;;;;;1972386;28;2732561;-78
2023/06/19 00:06:48;;;;;;;;;6.67;5.33;;;;;;;;2001596;28;2746119;-78
2023/06/19 00:07:58;;;;;;;;;7.00;6.00;;;;;;;;1982785;28;2743021;-78
2023/06/19 00:09:09;;;;;;;;;8.33;7.00;;;;;;;;1998982;28;2745096;-78
2023/06/19 00:10:20;;;;;;;;;9.00;6.00;;;;;;;;2006199;28;2737806;-77
2023/06/19 00:11:31;;;;;;;;;8.00;7.00;;;;;;;;1998501;28;2733631;-76
2023/06/19 00:12:42;;;;;;;;;7.00;5.00;;;;;;;;2004768;28;2740883;-76
2023/06/19 00:13:52;;;;;;;;;6.00;6.00;;;;;;;;1977986;28;2740943;-76
2023/06/19 00:15:03;;;;;;;;;5.00;5.00;;;;;;;;1992150;28;2745025;-77
2023/06/19 00:16:14;;;;;;;;;5.33;5.33;;;;;;;;1992827;28;2740498;-77
2023/06/19 00:17:28;;;;;;;;;8.00;8.00;;;;;;;;2006025;28;1819037;-74
2023/06/19 00:18:39;;;;;;;;;6.00;6.00;;;;;;;;1957250;28;3450241;-74
2023/06/19 00:19:53;;;;;;;;;5.33;5.33;;;;;;;;1997058;28;2733986;-75
2023/06/19 00:21:05;;;;;;;;;7.33;6.67;;;;;;;;1947670;28;3456479;-76
2023/06/19 00:22:16;;;;;;;;;9.00;7.00;;;;;;;;1978485;28;2733679;-76
2023/06/19 00:23:26;;;;;;;;;7.00;5.67;;;;;;;;2000683;28;1810756;-75
2023/06/19 00:24:37;;;;;;;;;11.50;7.00;;;;;;;;1949576;28;2759663;-75
2023/06/19 00:25:48;;;;;;;;;9.00;8.00;;;;;;;;2000030;28;2746146;-75
2023/06/19 00:27:02;;;;;;;;;8.00;8.00;;;;;;;;2004272;28;2742026;-75
2023/06/19 00:28:14;;;;;;;;;8.00;7.00;;;;;;;;2000785;28;1820078;-75
2023/06/19 00:29:27;;;;;;;;;7.75;6.50;;;;;;;;1979176;28;1816963;-78
2023/06/19 00:30:38;;;;;;;;;7.00;5.67;;;;;;;;2000550;28;1814829;-78
2023/06/19 00:31:49;;;;;;;;;5.33;5.33;;;;;;;;1989680;28;2737810;-78
2023/06/19 00:33:03;;;;;;;;;9.60;8.00;;;;;;;;2016466;28;1819087;-76
2023/06/19 00:34:13;;;;;;;;;5.00;5.00;;;;;;;;1954373;28;2739961;-78
2023/06/19 00:35:24;;;;;;;;;11.00;8.00;;;;;;;;2009614;28;2757042;-76
2023/06/19 00:36:40;;;;;;;;;9.67;7.00;;;;;;;;1985022;28;3456440;-76
2023/06/19 00:37:50;;;;;;;;;8.00;8.00;;;;;;;;1979043;28;2735802;-76
2023/06/19 00:39:02;;;;;;;;;6.33;6.33;;;;;;;;2009519;28;1813066;-76
2023/06/19 00:40:19;;;;;;;;;9.17;8.17;;;;;;;;2000619;28;1824242;-76
2023/06/19 00:41:30;;;;;;;;;11.00;9.00;;;;;;;;1947496;28;2771138;-76
2023/06/19 00:42:41;;;;;;;;;9.50;8.00;;;;;;;;1992458;28;1831600;-76
2023/06/19 00:43:54;;;;;;;;;8.00;8.00;;;;;;;;1976324;28;2733603;-76
2023/06/19 00:45:04;;;;;;;;;7.33;6.00;;;;;;;;1981813;28;2739834;-76
2023/06/19 00:46:16;;;;;;;;;8.50;7.50;;;;;;;;2009873;28;2735683;-76
2023/06/19 00:47:26;;;;;;;;;6.33;6.33;;;;;;;;1979076;28;2735148;-77
2023/06/19 00:48:38;;;;;;;;;6.00;6.00;;;;;;;;2004759;28;2471769;-77
2023/06/19 00:49:49;;;;;;;;;6.00;6.00;;;;;;;;1986812;28;2743098;-77
2023/06/19 00:50:59;;;;;;;;;8.00;8.00;;;;;;;;1985768;28;2746126;-76
2023/06/19 00:52:10;;;;;;;;;7.33;7.33;;;;;;;;2019081;28;1814866;-75
2023/06/19 00:53:21;;;;;;;;;11.00;7.00;;;;;;;;1985407;28;2754527;-77
2023/06/19 00:54:32;;;;;;;;;5.33;5.33;;;;;;;;1976255;28;2741913;-76
2023/06/19 00:55:44;;;;;;;;;7.00;7.00;;;;;;;;1992147;28;1808596;-76
2023/06/19 00:56:54;;;;;;;;;8.33;7.00;;;;;;;;1976711;28;1825294;-76
2023/06/19 00:58:05;;;;;;;;;8.67;8.00;;;;;;;;1979081;28;3459623;-76
2023/06/19 00:59:17;;;;;;;;;7.50;6.50;;;;;;;;1997502;28;2737781;-76
2023/06/19 01:00:28;;;;;;;;;10.50;7.50;;;;;;;;2000058;28;1828442;-76
2023/06/19 01:01:39;;;;;;;;;6.67;6.33;;;;;;;;1986763;28;2735799;-76
2023/06/19 01:02:49;;;;;;;;;8.00;8.00;;;;;;;;1998149;28;2728415;-77
2023/06/19 01:04:00;;;;;;;;;8.00;7.50;;;;;;;;2003373;28;2737765;-76
2023/06/19 01:05:11;;;;;;;;;4.00;4.00;;;;;;;;1999066;28;2733676;-76
2023/06/19 01:06:25;;;;;;;;;6.00;3.33;;;;;;;;1998424;28;2743583;-76
2023/06/19 01:08:04;;;;;;;;;9.00;6.67;;;;;;;;1986258;28;3444039;-76
2023/06/19 01:09:16;;;;;;;;;9.25;7.50;;;;;;;;1975491;28;1833745;-76
2023/06/19 01:10:32;;;;;;;;;7.00;7.00;;;;;;;;1964776;28;2739842;-76
2023/06/19 01:11:46;;;;;;;;;7.75;7.75;;;;;;;;1991904;28;1813859;-76
2023/06/19 01:12:58;;;;;;;;;7.50;6.00;;;;;;;;1980846;28;2740919;-76
2023/06/19 01:14:12;;;;;;;;;9.00;7.00;;;;;;;;1970190;28;2744039;-76
2023/06/19 01:15:23;;;;;;;;;8.50;7.00;;;;;;;;1983962;28;2740879;-76
2023/06/19 01:16:34;;;;;;;;;10.00;9.00;;;;;;;;1983642;28;2749216;-77
2023/06/19 01:17:47;;;;;;;;;8.75;8.75;;;;;;;;2002614;28;2744439;-77
2023/06/19 01:18:58;;;;;;;;;10.50;8.75;;;;;;;;1988291;28;1848757;-76
2023/06/19 01:20:11;;;;;;;;;5.50;5.50;;;;;;;;2002037;28;2731768;-77
2023/06/19 01:21:22;;;;;;;;;9.00;7.00;;;;;;;;1956987;28;2461744;-78
2023/06/19 01:22:33;;;;;;;;;7.00;7.00;;;;;;;;1996750;28;2742412;-79
2023/06/19 01:23:44;;;;;;;;;10.33;7.33;;;;;;;;2001482;28;3458531;-79
2023/06/19 01:24:57;;;;;;;;;9.80;7.40;;;;;;;;2006970;28;2735687;-76
2023/06/19 01:26:08;;;;;;;;;9.33;6.67;;;;;;;;1956269;28;3453365;-76
2023/06/19 01:27:18;;;;;;;;;8.00;6.00;;;;;;;;1980294;28;2743541;-76
2023/06/19 01:28:29;;;;;;;;;8.33;7.33;;;;;;;;2004002;28;2735667;-76
2023/06/19 01:29:40;;;;;;;;;5.00;5.00;;;;;;;;2009064;28;2741024;-76
2023/06/19 01:30:53;;;;;;;;;6.00;5.33;;;;;;;;2006274;28;2746147;-79
2023/06/19 01:32:13;;;;;;;;;5.50;4.17;;;;;;;;2013677;28;2731545;-80
2023/06/19 01:33:26;;;;;;;;;8.00;7.00;;;;;;;;1951848;28;2741932;-81
2023/06/19 01:34:37;;;;;;;;;7.00;6.33;;;;;;;;1982554;28;2737762;-80
2023/06/19 01:35:49;;;;;;;;;10.00;9.00;;;;;;;;1983974;28;2763803;-80
2023/06/19 01:37:05;;;;;;;;;6.83;6.83;;;;;;;;2005426;28;2737245;-80
2023/06/19 01:38:16;;;;;;;;;11.00;7.33;;;;;;;;1955613;28;3473614;-80
2023/06/19 01:39:27;;;;;;;;;10.00;7.50;;;;;;;;1978393;28;2762761;-80
2023/06/19 01:40:40;;;;;;;;;8.80;7.00;;;;;;;;2011094;28;1823881;-80
2023/06/19 01:41:51;;;;;;;;;9.00;8.00;;;;;;;;1984919;28;2743006;-80
2023/06/19 01:43:04;;;;;;;;;7.40;6.20;;;;;;;;2013625;28;1821232;-80
2023/06/19 01:44:15;;;;;;;;;10.00;8.00;;;;;;;;1957306;28;2738838;-80
2023/06/19 01:45:25;;;;;;;;;7.00;7.00;;;;;;;;1989191;28;2735711;-79
2023/06/19 01:46:36;;;;;;;;;8.50;7.25;;;;;;;;2008034;28;1815994;-79
2023/06/19 01:47:49;;;;;;;;;10.67;9.33;;;;;;;;2009519;28;1819053;-77
2023/06/19 01:49:00;;;;;;;;;7.00;7.00;;;;;;;;1971622;28;1814858;-75
2023/06/19 01:50:11;;;;;;;;;12.00;7.50;;;;;;;;1980890;28;2762812;-74
2023/06/19 01:51:22;;;;;;;;;9.67;7.67;;;;;;;;2002805;28;1826365;-74
2023/06/19 01:52:33;;;;;;;;;10.00;9.00;;;;;;;;1976159;28;2772507;-75
2023/06/19 01:53:44;;;;;;;;;6.33;6.00;;;;;;;;2003978;28;2739836;-79
2023/06/19 01:54:54;;;;;;;;;9.00;9.00;;;;;;;;1985192;28;2741435;-78
2023/06/19 01:56:06;;;;;;;;;7.50;7.00;;;;;;;;2008533;28;1834727;-78
2023/06/19 01:57:18;;;;;;;;;9.00;7.00;;;;;;;;2000216;28;1812804;-80
2023/06/19 01:58:28;;;;;;;;;6.00;6.00;;;;;;;;1984630;28;2737197;-79
2023/06/19 01:59:40;;;;;;;;;12.17;10.33;;;;;;;;2009858;28;2793974;-79
2023/06/19 02:00:51;;;;;;;;;10.75;8.50;;;;;;;;1991741;28;1820102;-79
2023/06/19 02:02:06;;;;;;;;;11.50;9.83;;;;;;;;2017543;28;1815939;-78
2023/06/19 02:03:19;;;;;;;;;9.83;9.50;;;;;;;;2013283;28;1821163;-78
2023/06/19 02:04:29;;;;;;;;;6.00;4.33;;;;;;;;1965813;28;2743151;-78
2023/06/19 02:05:40;;;;;;;;;10.75;8.75;;;;;;;;2011127;28;1819201;-78
2023/06/19 02:06:51;;;;;;;;;11.75;9.50;;;;;;;;1987808;28;2764876;-78
2023/06/19 02:08:02;;;;;;;;;8.50;7.25;;;;;;;;1993842;28;1824210;-78
2023/06/19 02:09:12;;;;;;;;;14.50;13.00;;;;;;;;1988034;28;2786686;-79
2023/06/19 02:10:23;;;;;;;;;9.00;9.00;;;;;;;;1984307;28;2742009;-79
2023/06/19 02:11:35;;;;;;;;;9.00;9.00;;;;;;;;1997407;28;2761732;-79
2023/06/19 02:12:47;;;;;;;;;14.33;9.17;;;;;;;;2000723;28;2784714;-78
2023/06/19 02:13:59;;;;;;;;;12.00;11.67;;;;;;;;1980112;28;2791896;-79
2023/06/19 02:15:10;;;;;;;;;9.00;7.50;;;;;;;;1973986;28;2730475;-80
2023/06/19 02:16:21;;;;;;;;;8.00;8.00;;;;;;;;1997087;28;2746099;-78
2023/06/19 02:17:31;;;;;;;;;9.00;9.00;;;;;;;;2005913;28;2748179;-77
2023/06/19 02:18:42;;;;;;;;;8.67;8.67;;;;;;;;2007206;28;3449225;-76
2023/06/19 02:19:53;;;;;;;;;14.75;10.75;;;;;;;;2013933;28;1819567;-76
2023/06/19 02:21:07;;;;;;;;;11.00;10.17;;;;;;;;2016773;28;1822118;-76
2023/06/19 02:22:20;;;;;;;;;11.17;10.50;;;;;;;;2016698;28;1815997;-76
2023/06/19 02:23:31;;;;;;;;;11.00;8.00;;;;;;;;1948052;28;2764877;-76
2023/06/19 02:24:44;;;;;;;;;12.00;11.00;;;;;;;;1999646;28;1819041;-76
2023/06/19 02:25:57;;;;;;;;;11.83;10.33;;;;;;;;2008224;28;1821184;-80
2023/06/19 02:27:08;;;;;;;;;8.00;8.00;;;;;;;;1961564;28;2723175;-80
2023/06/19 02:28:19;;;;;;;;;9.50;8.50;;;;;;;;1986652;28;1819006;-80
2023/06/19 02:29:35;;;;;;;;;9.00;6.33;;;;;;;;2011189;28;2741906;-80
2023/06/19 02:30:45;;;;;;;;;13.50;11.00;;;;;;;;1962637;28;2784616;-79
2023/06/19 02:31:56;;;;;;;;;11.00;9.00;;;;;;;;1990811;28;1829502;-79
2023/06/19 02:33:09;;;;;;;;;5.00;5.00;;;;;;;;2008282;28;2741896;-79
2023/06/19 02:34:23;;;;;;;;;13.57;10.86;;;;;;;;1986265;28;1820079;-80
2023/06/19 02:35:34;;;;;;;;;9.50;9.50;;;;;;;;1983567;28;2771090;-80
2023/06/19 02:36:47;;;;;;;;;10.50;9.00;;;;;;;;1984239;28;2763766;-80
2023/06/19 02:37:57;;;;;;;;;12.00;10.00;;;;;;;;1977066;28;2784595;-79
2023/06/19 02:39:09;;;;;;;;;10.00;10.00;;;;;;;;1976961;28;2791946;-79
2023/06/19 02:40:19;;;;;;;;;11.50;11.50;;;;;;;;1988620;28;2787841;-79
2023/06/19 02:41:31;;;;;;;;;12.83;10.17;;;;;;;;1982800;28;2785672;-79
2023/06/19 02:42:42;;;;;;;;;13.00;10.00;;;;;;;;1981025;28;2786051;-77
2023/06/19 02:43:53;;;;;;;;;8.00;6.25;;;;;;;;1985889;28;1822154;-78
2023/06/19 02:45:07;;;;;;;;;12.00;11.43;;;;;;;;2008554;28;1819509;-78
2023/06/19 02:46:17;;;;;;;;;9.50;9.50;;;;;;;;1977243;28;2764875;-78
2023/06/19 02:47:30;;;;;;;;;11.75;11.25;;;;;;;;2006638;28;2787081;-78
2023/06/19 02:48:40;;;;;;;;;12.50;11.00;;;;;;;;1962412;28;2788809;-78
2023/06/19 02:49:52;;;;;;;;;11.67;10.83;;;;;;;;2005982;28;2786678;-79
2023/06/19 02:51:05;;;;;;;;;18.43;14.14;;;;;;;;1982381;28;3533544;-79
2023/06/19 02:52:18;;;;;;;;;12.00;11.33;;;;;;;;2025340;28;2789807;-79
2023/06/19 02:53:29;;;;;;;;;15.25;12.75;;;;;;;;1980353;28;1819053;-79
2023/06/19 02:54:39;;;;;;;;;12.50;10.25;;;;;;;;1981637;28;2772246;-79
2023/06/19 02:55:51;;;;;;;;;12.67;11.83;;;;;;;;1978699;28;2800251;-78
2023/06/19 02:57:04;;;;;;;;;15.86;12.43;;;;;;;;1982384;28;3521094;-78
2023/06/19 02:58:15;;;;;;;;;12.00;11.50;;;;;;;;1992167;28;2784636;-78
2023/06/19 02:59:26;;;;;;;;;13.00;12.00;;;;;;;;1957252;28;2808978;-78
2023/06/19 03:00:39;;;;;;;;;15.29;13.86;;;;;;;;2007609;28;3518013;-78
2023/06/19 03:01:51;;;;;;;;;15.33;14.00;;;;;;;;2001495;28;2805482;-78
2023/06/19 03:03:02;;;;;;;;;11.00;11.00;;;;;;;;1981177;28;2781638;-77
2023/06/19 03:04:14;;;;;;;;;14.00;12.33;;;;;;;;1984173;28;2792999;-77
2023/06/19 03:05:29;;;;;;;;;14.29;12.86;;;;;;;;1978488;28;2799206;-75
2023/06/19 03:06:40;;;;;;;;;15.00;11.50;;;;;;;;1976823;28;2790972;-75
2023/06/19 03:07:52;;;;;;;;;12.14;11.43;;;;;;;;1973664;28;2808604;-75
2023/06/19 03:09:04;;;;;;;;;16.67;13.00;;;;;;;;1974078;28;2821096;-79
2023/06/19 03:10:16;;;;;;;;;17.00;13.00;;;;;;;;1971707;28;3543956;-79
2023/06/19 03:11:27;;;;;;;;;13.40;10.60;;;;;;;;1990891;28;2786774;-79
2023/06/19 03:12:39;;;;;;;;;14.67;13.33;;;;;;;;1980048;28;2814875;-79
2023/06/19 03:13:53;;;;;;;;;15.00;12.50;;;;;;;;1972066;28;2789270;-76
2023/06/19 03:15:03;;;;;;;;;13.00;12.50;;;;;;;;1957631;28;2788857;-77
2023/06/19 03:16:14;;;;;;;;;13.00;10.00;;;;;;;;1994449;28;2784675;-78
2023/06/19 03:17:27;;;;;;;;;16.00;13.86;;;;;;;;1983961;28;2796544;-78
2023/06/19 03:18:37;;;;;;;;;14.00;13.00;;;;;;;;1984387;28;2810628;-78
2023/06/19 03:19:50;;;;;;;;;13.50;13.17;;;;;;;;2002798;28;2791935;-78
2023/06/19 03:21:02;;;;;;;;;17.80;15.00;;;;;;;;1989314;28;3548492;-78
2023/06/19 03:22:15;;;;;;;;;15.71;14.00;;;;;;;;2003326;28;3529393;-78
2023/06/19 03:23:27;;;;;;;;;15.80;13.20;;;;;;;;2006922;28;3519311;-76
2023/06/19 03:24:39;;;;;;;;;14.71;13.00;;;;;;;;2007958;28;3542957;-76
2023/06/19 03:25:50;;;;;;;;;12.75;11.50;;;;;;;;1988556;28;1832586;-76
2023/06/19 03:27:02;;;;;;;;;14.67;14.00;;;;;;;;1948763;28;3531501;-76
2023/06/19 03:28:13;;;;;;;;;14.80;14.40;;;;;;;;2003393;28;3517973;-80
2023/06/19 03:29:26;;;;;;;;;13.43;12.00;;;;;;;;2006497;28;2790896;-80
2023/06/19 03:30:36;;;;;;;;;12.00;12.00;;;;;;;;1987548;28;2786734;-80
2023/06/19 03:31:47;;;;;;;;;13.50;12.00;;;;;;;;2009417;28;2801301;-80
2023/06/19 03:33:00;;;;;;;;;17.43;14.29;;;;;;;;1979251;28;3543944;-80
2023/06/19 03:34:12;;;;;;;;;12.80;11.20;;;;;;;;2011697;28;3511685;-80
2023/06/19 03:35:24;;;;;;;;;14.40;11.80;;;;;;;;2004811;28;3517951;-80
2023/06/19 03:36:36;;;;;;;;;16.40;13.40;;;;;;;;2004019;28;3536656;-80
2023/06/19 03:37:48;;;;;;;;;12.67;11.33;;;;;;;;2007099;28;2807532;-80
2023/06/19 03:38:59;;;;;;;;;14.75;12.00;;;;;;;;1986687;28;2789796;-80
2023/06/19 03:40:13;;;;;;;;;14.00;13.14;;;;;;;;1983895;28;3550268;-80
2023/06/19 03:41:24;;;;;;;;;15.00;13.00;;;;;;;;1984125;28;3536684;-80
2023/06/19 03:42:36;;;;;;;;;18.60;15.40;;;;;;;;2012013;28;3539828;-80
2023/06/19 03:43:48;;;;;;;;;16.60;13.80;;;;;;;;2009731;28;3535599;-80
2023/06/19 03:45:00;;;;;;;;;13.50;12.33;;;;;;;;2006197;28;2806474;-80
2023/06/19 03:46:11;;;;;;;;;13.75;7.50;;;;;;;;1982794;28;1830016;-80
2023/06/19 03:47:22;;;;;;;;;15.67;13.00;;;;;;;;1987500;28;3540855;-80
2023/06/19 03:48:33;;;;;;;;;11.50;10.00;;;;;;;;2006586;28;1823281;-80
2023/06/19 03:49:44;;;;;;;;;16.00;13.00;;;;;;;;1963401;28;2807547;-79
2023/06/19 03:50:56;;;;;;;;;17.80;15.80;;;;;;;;1986314;28;3547061;-79
2023/06/19 03:52:07;;;;;;;;;15.20;15.20;;;;;;;;2012182;28;3546055;-79
2023/06/19 03:53:19;;;;;;;;;17.40;16.60;;;;;;;;2007028;28;3558520;-79
2023/06/19 03:54:32;;;;;;;;;17.14;14.71;;;;;;;;1999649;28;3540873;-79
2023/06/19 03:55:45;;;;;;;;;13.14;13.14;;;;;;;;2004471;28;3530469;-79
2023/06/19 03:56:57;;;;;;;;;13.80;11.40;;;;;;;;2000455;28;3526259;-80
2023/06/19 03:58:09;;;;;;;;;15.00;14.00;;;;;;;;2001651;28;3527796;-81
2023/06/19 03:59:21;;;;;;;;;17.80;13.80;;;;;;;;2003663;28;3534607;-77
2023/06/19 04:00:34;;;;;;;;;14.71;14.43;;;;;;;;1994711;28;3500271;-77
2023/06/19 04:01:47;;;;;;;;;15.57;14.71;;;;;;;;1989978;28;3534605;-77
2023/06/19 04:03:00;;;;;;;;;14.71;13.71;;;;;;;;1997393;28;3544036;-77
2023/06/19 04:04:12;;;;;;;;;12.67;11.67;;;;;;;;1995072;28;2791890;-77
2023/06/19 04:05:25;;;;;;;;;14.57;14.14;;;;;;;;1976813;28;2803389;-77
2023/06/19 04:06:35;;;;;;;;;16.00;11.50;;;;;;;;1979947;28;2796073;-77
2023/06/19 04:07:47;;;;;;;;;16.20;14.00;;;;;;;;1983197;28;3526233;-77
2023/06/19 04:09:00;;;;;;;;;15.71;13.00;;;;;;;;2002369;28;3532514;-77
2023/06/19 04:10:13;;;;;;;;;14.43;14.14;;;;;;;;2003505;28;2819214;-76
2023/06/19 04:11:23;;;;;;;;;14.50;12.50;;;;;;;;1975561;28;2795075;-76
2023/06/19 04:12:36;;;;;;;;;15.14;14.71;;;;;;;;1972012;28;3516861;-76
2023/06/19 04:13:48;;;;;;;;;14.00;11.83;;;;;;;;1995888;28;2797110;-76
2023/06/19 04:15:01;;;;;;;;;14.86;13.00;;;;;;;;1969906;28;3539887;-76
2023/06/19 04:16:13;;;;;;;;;15.86;14.57;;;;;;;;1998644;28;3545037;-76
2023/06/19 04:17:25;;;;;;;;;16.40;13.20;;;;;;;;2009733;28;3541873;-75
2023/06/19 04:18:38;;;;;;;;;16.00;13.57;;;;;;;;1998604;28;3538077;-75
2023/06/19 04:19:50;;;;;;;;;14.40;11.80;;;;;;;;2003451;28;3507519;-78
2023/06/19 04:21:03;;;;;;;;;13.43;12.57;;;;;;;;1994331;28;2795098;-78
2023/06/19 04:22:13;;;;;;;;;13.00;13.00;;;;;;;;1974250;28;2799237;-78
2023/06/19 04:23:25;;;;;;;;;12.00;12.00;;;;;;;;1978489;28;2802338;-78
2023/06/19 04:24:37;;;;;;;;;13.50;12.67;;;;;;;;1983931;28;2795039;-78
2023/06/19 04:25:48;;;;;;;;;12.50;12.50;;;;;;;;1980990;28;2796046;-80
2023/06/19 04:26:59;;;;;;;;;15.00;14.00;;;;;;;;1976058;28;2803380;-78
2023/06/19 04:28:11;;;;;;;;;17.60;14.80;;;;;;;;1985694;28;3551287;-79
2023/06/19 04:29:24;;;;;;;;;15.43;13.71;;;;;;;;2006872;28;3536790;-79
2023/06/19 04:30:39;;;;;;;;;16.71;14.14;;;;;;;;2001743;28;3533587;-75
2023/06/19 04:31:50;;;;;;;;;15.33;12.33;;;;;;;;1975453;28;2810134;-74
2023/06/19 04:33:01;;;;;;;;;14.67;13.67;;;;;;;;1973510;28;2787763;-73
2023/06/19 04:34:14;;;;;;;;;13.00;12.00;;;;;;;;1976280;28;3517982;-76
2023/06/19 04:35:26;;;;;;;;;11.60;10.20;;;;;;;;1998478;28;2792374;-74
2023/06/19 04:36:39;;;;;;;;;15.71;15.71;;;;;;;;1974511;28;3556496;-74
2023/06/19 04:37:51;;;;;;;;;13.67;13.00;;;;;;;;1982055;28;3527357;-74
2023/06/19 04:39:02;;;;;;;;;13.50;12.00;;;;;;;;1975932;28;2794029;-74
2023/06/19 04:40:14;;;;;;;;;13.33;12.00;;;;;;;;1968679;28;2787759;-74
2023/06/19 04:41:25;;;;;;;;;18.67;15.00;;;;;;;;1981055;28;2812078;-74
2023/06/19 04:42:38;;;;;;;;;13.17;13.17;;;;;;;;2011984;28;1827463;-74
2023/06/19 04:43:48;;;;;;;;;15.50;12.50;;;;;;;;1958546;28;2807543;-74
2023/06/19 04:45:00;;;;;;;;;14.75;13.00;;;;;;;;2009498;28;2784958;-74
2023/06/19 04:46:12;;;;;;;;;19.43;13.86;;;;;;;;1977056;28;3550203;-74
2023/06/19 04:47:24;;;;;;;;;15.80;12.40;;;;;;;;1995547;28;3529449;-74
2023/06/19 04:48:39;;;;;;;;;16.14;11.29;;;;;;;;1999272;28;3536687;-75
2023/06/19 04:49:49;;;;;;;;;15.50;12.00;;;;;;;;1969084;28;2783965;-75
2023/06/19 04:51:03;;;;;;;;;15.86;15.00;;;;;;;;1986621;28;3537746;-74
2023/06/19 04:52:14;;;;;;;;;18.00;14.00;;;;;;;;1978964;28;3533976;-75
2023/06/19 04:53:27;;;;;;;;;13.67;12.83;;;;;;;;2008099;28;2795147;-76
2023/06/19 04:54:39;;;;;;;;;16.00;12.33;;;;;;;;1947414;28;2801305;-76
2023/06/19 04:55:51;;;;;;;;;12.67;12.00;;;;;;;;1967774;28;2795071;-75
2023/06/19 04:57:01;;;;;;;;;13.00;13.00;;;;;;;;1969909;28;2796094;-75
2023/06/19 04:58:13;;;;;;;;;12.17;11.83;;;;;;;;1992631;28;2791946;-74
2023/06/19 04:59:25;;;;;;;;;15.40;12.60;;;;;;;;1979140;28;2803376;-75
2023/06/19 05:00:35;;;;;;;;;15.00;14.50;;;;;;;;1980239;28;2798140;-75
2023/06/19 05:01:47;;;;;;;;;17.20;14.00;;;;;;;;1975286;28;3529372;-75
2023/06/19 05:03:00;;;;;;;;;15.40;13.60;;;;;;;;2000528;28;3521032;-75
2023/06/19 05:04:13;;;;;;;;;12.00;9.50;;;;;;;;1979051;28;2776293;-75
2023/06/19 05:05:25;;;;;;;;;15.00;13.33;;;;;;;;1950986;28;2798244;-75
2023/06/19 05:06:36;;;;;;;;;15.00;14.00;;;;;;;;1987375;28;2803404;-77
2023/06/19 05:07:47;;;;;;;;;16.00;14.00;;;;;;;;1988155;28;2822649;-77
2023/06/19 05:08:59;;;;;;;;;15.00;12.33;;;;;;;;2002534;28;2801376;-77
2023/06/19 05:10:10;;;;;;;;;15.00;13.00;;;;;;;;1981153;28;2792953;-77
2023/06/19 05:11:21;;;;;;;;;16.00;13.00;;;;;;;;1953273;28;2797094;-77
2023/06/19 05:12:32;;;;;;;;;10.00;10.00;;;;;;;;1976263;28;2783901;-77
2023/06/19 05:13:43;;;;;;;;;12.00;11.00;;;;;;;;1966966;28;2784660;-75
2023/06/19 05:14:54;;;;;;;;;16.60;13.40;;;;;;;;1987700;28;3514846;-75
2023/06/19 05:16:06;;;;;;;;;13.60;13.60;;;;;;;;2003599;28;3514798;-73
2023/06/19 05:17:19;;;;;;;;;16.00;12.86;;;;;;;;2006410;28;3519013;-73
2023/06/19 05:18:31;;;;;;;;;12.60;11.80;;;;;;;;2011126;28;3508540;-73
2023/06/19 05:19:44;;;;;;;;;17.57;15.14;;;;;;;;2008515;28;3539937;-73
2023/06/19 05:20:56;;;;;;;;;18.40;15.20;;;;;;;;2004879;28;3547132;-73
2023/06/19 05:22:08;;;;;;;;;16.86;15.57;;;;;;;;1998428;28;3546066;-73
2023/06/19 05:23:21;;;;;;;;;16.00;13.57;;;;;;;;1998025;28;2815301;-73
2023/06/19 05:24:33;;;;;;;;;16.00;13.00;;;;;;;;1977374;28;3540867;-73
2023/06/19 05:25:43;;;;;;;;;15.00;13.50;;;;;;;;1979517;28;2817476;-73
2023/06/19 05:26:54;;;;;;;;;12.00;11.75;;;;;;;;1980520;28;2789827;-73
2023/06/19 05:28:07;;;;;;;;;16.00;15.29;;;;;;;;1975976;28;3538782;-73
2023/06/19 05:29:19;;;;;;;;;18.20;15.40;;;;;;;;1996759;28;3531445;-73
2023/06/19 05:30:32;;;;;;;;;16.00;14.43;;;;;;;;1993523;28;3521087;-73
2023/06/19 05:31:42;;;;;;;;;9.00;9.00;;;;;;;;1998090;28;2746194;-73
2023/06/19 05:32:55;;;;;;;;;16.20;14.40;;;;;;;;2002346;28;2799683;-73
2023/06/19 05:34:05;;;;;;;;;15.00;14.00;;;;;;;;1988724;28;2805471;-73
2023/06/19 05:35:18;;;;;;;;;14.57;14.57;;;;;;;;1987583;28;3524177;-73
2023/06/19 05:36:30;;;;;;;;;15.14;13.86;;;;;;;;1998304;28;3509598;-73
2023/06/19 05:37:43;;;;;;;;;16.80;15.00;;;;;;;;2005835;28;3535674;-73
2023/06/19 05:38:54;;;;;;;;;15.00;14.33;;;;;;;;1983375;28;3529413;-73
2023/06/19 05:40:06;;;;;;;;;18.40;15.00;;;;;;;;2011860;28;3549677;-73
2023/06/19 05:41:18;;;;;;;;;16.60;15.00;;;;;;;;1985085;28;3545006;-73
2023/06/19 05:42:30;;;;;;;;;16.00;13.00;;;;;;;;2006225;28;3521072;-73
2023/06/19 05:43:42;;;;;;;;;10.20;9.80;;;;;;;;2000884;28;2770029;-73
2023/06/19 05:44:53;;;;;;;;;15.67;14.67;;;;;;;;1975181;28;3541904;-73
2023/06/19 05:46:04;;;;;;;;;18.20;15.60;;;;;;;;1984609;28;2835635;-73
2023/06/19 05:47:17;;;;;;;;;17.40;14.80;;;;;;;;1994871;28;2798153;-73
2023/06/19 05:48:28;;;;;;;;;17.33;14.67;;;;;;;;1972337;28;2792009;-73
2023/06/19 05:49:40;;;;;;;;;17.00;13.67;;;;;;;;1985548;28;2807638;-73
2023/06/19 05:50:52;;;;;;;;;19.00;18.00;;;;;;;;1973380;28;2829397;-73
2023/06/19 05:52:02;;;;;;;;;18.50;16.50;;;;;;;;1977960;28;2824189;-73
2023/06/19 05:53:14;;;;;;;;;19.00;14.20;;;;;;;;1981933;28;3533543;-73
2023/06/19 05:54:26;;;;;;;;;18.00;16.60;;;;;;;;2013373;28;3557537;-73
2023/06/19 05:55:38;;;;;;;;;16.00;15.20;;;;;;;;2001998;28;3549145;-73
2023/06/19 05:56:50;;;;;;;;;15.20;14.80;;;;;;;;2001921;28;3523111;-73
2023/06/19 05:58:02;;;;;;;;;15.67;15.67;;;;;;;;1980846;28;2814830;-73
2023/06/19 05:59:14;;;;;;;;;14.00;13.00;;;;;;;;1985095;28;3520038;-73
2023/06/19 06:00:24;;;;;;;;;15.00;15.00;;;;;;;;1969886;28;2799261;-73
2023/06/19 06:01:36;;;;;;;;;18.20;13.80;;;;;;;;1990859;28;3552361;-73
2023/06/19 06:02:48;;;;;;;;;21.00;17.00;;;;;;;;1973929;28;3568002;-73
2023/06/19 06:04:02;;;;;;;;;19.20;18.00;;;;;;;;1987072;28;3564808;-73
2023/06/19 06:05:13;;;;;;;;;18.00;16.00;;;;;;;;1980122;28;2829404;-73
2023/06/19 06:06:25;;;;;;;;;17.67;14.33;;;;;;;;1979086;28;2812208;-73
2023/06/19 06:07:36;;;;;;;;;17.67;14.00;;;;;;;;1976269;28;3537729;-75
2023/06/19 06:08:47;;;;;;;;;18.40;16.20;;;;;;;;1974140;28;2831525;-74
2023/06/19 06:09:59;;;;;;;;;17.60;16.40;;;;;;;;1992847;28;3557477;-74
2023/06/19 06:11:11;;;;;;;;;13.00;12.20;;;;;;;;2004195;28;3513760;-74
2023/06/19 06:12:23;;;;;;;;;16.60;15.80;;;;;;;;2005851;28;3549309;-73
2023/06/19 06:13:35;;;;;;;;;18.40;17.00;;;;;;;;2006279;28;3570052;-74
2023/06/19 06:14:46;;;;;;;;;17.33;15.67;;;;;;;;1947117;28;3559652;-73
2023/06/19 06:15:58;;;;;;;;;20.20;16.20;;;;;;;;1989464;28;3551351;-74
2023/06/19 06:17:11;;;;;;;;;18.00;16.14;;;;;;;;1996017;28;3557548;-73
2023/06/19 06:18:23;;;;;;;;;18.80;17.00;;;;;;;;2004437;28;3564815;-73
2023/06/19 06:19:36;;;;;;;;;20.80;19.80;;;;;;;;2005383;28;3565841;-73
2023/06/19 06:20:47;;;;;;;;;15.00;14.67;;;;;;;;1950178;28;2807523;-73
2023/06/19 06:21:59;;;;;;;;;21.67;19.00;;;;;;;;1976931;28;3571114;-73
2023/06/19 06:23:11;;;;;;;;;19.20;17.00;;;;;;;;1988915;28;3573105;-73
2023/06/19 06:24:23;;;;;;;;;17.00;13.57;;;;;;;;2004231;28;3533018;-73
2023/06/19 06:25:35;;;;;;;;;20.20;17.00;;;;;;;;2007269;28;3566868;-73
2023/06/19 06:26:49;;;;;;;;;23.00;20.71;;;;;;;;1996616;28;3581458;-73
2023/06/19 06:28:00;;;;;;;;;22.00;17.33;;;;;;;;1965934;28;3575213;-73
2023/06/19 06:29:13;;;;;;;;;19.86;18.57;;;;;;;;1982976;28;3568006;-73
2023/06/19 06:30:27;;;;;;;;;21.40;17.40;;;;;;;;1987528;28;3570000;-73
2023/06/19 06:31:39;;;;;;;;;19.33;18.33;;;;;;;;1960018;28;3570021;-73
2023/06/19 06:32:51;;;;;;;;;22.33;18.00;;;;;;;;1950253;28;3564815;-73
2023/06/19 06:34:04;;;;;;;;;20.86;18.57;;;;;;;;1968812;28;3573237;-73
2023/06/19 06:35:15;;;;;;;;;23.80;18.40;;;;;;;;1964573;28;3563743;-73
2023/06/19 06:36:27;;;;;;;;;19.20;18.40;;;;;;;;1979108;28;3568974;-73
2023/06/19 06:37:38;;;;;;;;;24.40;22.40;;;;;;;;1985850;28;2836708;-73
2023/06/19 06:38:48;;;;;;;;;22.00;18.00;;;;;;;;1964684;28;2837746;-73
2023/06/19 06:40:04;;;;;;;;;20.29;19.43;;;;;;;;1975640;28;3571070;-73
2023/06/19 06:41:15;;;;;;;;;17.00;17.00;;;;;;;;1961665;28;3562737;-73
2023/06/19 06:42:26;;;;;;;;;13.00;10.00;;;;;;;;1977116;28;2792981;-73
2023/06/19 06:43:42;;;;;;;;;25.00;19.71;;;;;;;;1972825;28;3585661;-73
2023/06/19 06:44:53;;;;;;;;;17.33;16.67;;;;;;;;1947103;28;3566899;-73
2023/06/19 06:46:05;;;;;;;;;18.00;18.00;;;;;;;;1994553;28;3571029;-73
2023/06/19 06:47:17;;;;;;;;;19.40;18.60;;;;;;;;2011568;28;3568972;-73
2023/06/19 06:48:30;;;;;;;;;21.80;19.40;;;;;;;;1979720;28;3568943;-73
2023/06/19 06:49:41;;;;;;;;;16.33;13.00;;;;;;;;1950449;28;3543975;-73
2023/06/19 06:51:00;;;;;;;;;23.40;20.00;;;;;;;;1978425;28;2837845;-73